createdAt,value
2023-07-07T00:02:31.536Z,19.85
2023-07-07T00:05:16.821Z,19.64
2023-07-07T00:08:02.454Z,19.47
2023-07-07T00:10:48.551Z,20.14
2023-07-07T00:13:33.965Z,19.54
2023-07-07T00:16:21.023Z,20.37
2023-07-07T00:19:10.603Z,19.31
2023-07-07T00:21:59.445Z,19.08
2023-07-07T00:24:45.009Z,20.23
2023-07-07T00:27:31.222Z,20.23
2023-07-07T00:30:16.801Z,19.18
2023-07-07T00:33:02.238Z,19.10
2023-07-07T00:35:49.070Z,19.89
2023-07-07T00:38:34.504Z,18.91
2023-07-07T00:41:21.077Z,19.97
2023-07-07T00:44:12.581Z,19.93
2023-07-07T00:46:58.222Z,19.54
2023-07-07T00:49:44.048Z,19.26
2023-07-07T00:52:31.022Z,19.68
2023-07-07T00:55:23.277Z,18.81
2023-07-07T00:58:13.301Z,18.86
2023-07-07T01:01:04.185Z,19.01
2023-07-07T01:04:06.234Z,18.71
2023-07-07T01:06:58.441Z,18.62
2023-07-07T01:09:43.727Z,19.66
2023-07-07T01:12:28.870Z,19.23
2023-07-07T01:15:14.846Z,19.59
2023-07-07T01:18:32.446Z,19.20
2023-07-07T01:21:30.578Z,19.55
2023-07-07T01:24:37.248Z,19.53
2023-07-07T01:27:37.083Z,18.48
2023-07-07T01:30:50.113Z,19.51
2023-07-07T01:33:36.170Z,19.43
2023-07-07T01:36:21.556Z,19.46
2023-07-07T01:39:07.261Z,18.66
2023-07-07T01:42:02.178Z,18.45
2023-07-07T01:44:57.245Z,19.50
2023-07-07T01:47:52.275Z,18.57
2023-07-07T01:50:39.531Z,19.44
2023-07-07T01:53:28.805Z,19.42
2023-07-07T01:56:20.985Z,19.38
2023-07-07T01:59:07.083Z,19.12
2023-07-07T02:01:53.035Z,19.33
2023-07-07T02:04:38.377Z,18.22
2023-07-07T02:07:23.464Z,18.17
2023-07-07T02:10:09.125Z,18.15
2023-07-07T02:12:54.736Z,18.88
2023-07-07T02:15:40.144Z,18.73
2023-07-07T02:18:28.000Z,18.30
2023-07-07T02:21:13.358Z,18.58
2023-07-07T02:23:58.953Z,18.21
2023-07-07T02:26:44.450Z,19.01
2023-07-07T02:29:30.035Z,17.95
2023-07-07T02:32:15.422Z,18.00
2023-07-07T02:35:02.966Z,18.93
2023-07-07T02:37:48.555Z,18.45
2023-07-07T02:40:34.188Z,17.85
2023-07-07T02:43:22.111Z,17.76
2023-07-07T02:46:07.412Z,18.78
2023-07-07T02:48:53.013Z,18.26
2023-07-07T02:51:38.312Z,18.23
2023-07-07T02:54:23.643Z,17.58
2023-07-07T02:57:09.002Z,17.93
2023-07-07T02:59:54.498Z,17.65
2023-07-07T03:02:39.902Z,18.66
2023-07-07T03:05:25.658Z,18.62
2023-07-07T03:08:12.036Z,18.36
2023-07-07T03:10:57.738Z,18.56
2023-07-07T03:13:46.966Z,18.30
2023-07-07T03:16:34.014Z,18.46
2023-07-07T03:19:22.928Z,17.60
2023-07-07T03:22:19.060Z,18.44
2023-07-07T03:25:18.190Z,18.34
2023-07-07T03:28:06.991Z,18.14
2023-07-07T03:30:58.150Z,18.51
2023-07-07T03:33:45.792Z,17.22
2023-07-07T03:36:34.056Z,17.89
2023-07-07T03:39:20.017Z,17.48
2023-07-07T03:42:09.808Z,17.45
2023-07-07T03:44:56.178Z,17.79
2023-07-07T03:47:41.761Z,17.91
2023-07-07T03:50:28.439Z,17.55
2023-07-07T03:53:14.245Z,18.64
2023-07-07T03:56:03.386Z,18.30
2023-07-07T03:58:49.674Z,18.47
2023-07-07T04:01:35.160Z,18.66
2023-07-07T04:04:20.480Z,17.59
2023-07-07T04:07:05.951Z,17.75
2023-07-07T04:09:53.183Z,18.61
2023-07-07T04:12:39.238Z,18.61
2023-07-07T04:15:24.696Z,18.63
2023-07-07T04:18:09.962Z,17.40
2023-07-07T04:20:55.798Z,18.65
2023-07-07T04:23:43.931Z,18.58
2023-07-07T04:26:31.679Z,18.47
2023-07-07T04:29:17.205Z,17.58
2023-07-07T04:32:03.312Z,18.60
2023-07-07T04:34:48.465Z,17.63
2023-07-07T04:37:34.190Z,17.79
2023-07-07T04:40:19.498Z,17.76
2023-07-07T04:43:04.751Z,17.84
2023-07-07T04:45:50.082Z,18.66
2023-07-07T04:48:35.460Z,18.48
2023-07-07T04:51:21.719Z,18.26
2023-07-07T04:54:11.382Z,17.81
2023-07-07T04:56:57.280Z,18.09
2023-07-07T04:59:42.688Z,18.51
2023-07-07T05:02:28.078Z,18.04
2023-07-07T05:05:14.462Z,18.53
2023-07-07T05:07:59.838Z,18.55
2023-07-07T05:10:48.935Z,17.50
2023-07-07T05:13:34.568Z,18.55
2023-07-07T05:16:23.402Z,17.49
2023-07-07T05:19:08.943Z,18.54
2023-07-07T05:21:54.377Z,18.32
2023-07-07T05:24:39.878Z,18.50
2023-07-07T05:27:25.547Z,18.08
2023-07-07T05:30:11.102Z,18.49
2023-07-07T05:32:56.700Z,18.60
2023-07-07T05:35:49.073Z,17.90
2023-07-07T05:38:35.078Z,18.64
2023-07-07T05:41:20.569Z,18.49
2023-07-07T05:44:05.703Z,18.65
2023-07-07T05:46:50.970Z,17.51
2023-07-07T05:49:36.299Z,18.48
2023-07-07T05:52:22.293Z,18.29
2023-07-07T05:55:10.101Z,18.56
2023-07-07T05:57:56.551Z,18.68
2023-07-07T06:00:42.593Z,18.58
2023-07-07T06:03:28.594Z,18.84
2023-07-07T06:06:14.376Z,17.97
2023-07-07T06:08:59.933Z,18.70
2023-07-07T06:11:47.897Z,18.73
2023-07-07T06:14:33.104Z,18.98
2023-07-07T06:17:18.453Z,18.99
2023-07-07T06:20:04.837Z,17.99
2023-07-07T06:22:50.408Z,18.68
2023-07-07T06:25:36.108Z,18.97
2023-07-07T06:28:21.867Z,18.71
2023-07-07T06:31:07.135Z,17.86
2023-07-07T06:33:52.682Z,18.13
2023-07-07T06:36:37.901Z,17.78
2023-07-07T06:39:26.275Z,18.94
2023-07-07T06:42:13.782Z,18.65
2023-07-07T06:45:08.508Z,19.03
2023-07-07T06:47:55.047Z,17.28
2023-07-07T06:50:42.511Z,18.02
2023-07-07T06:53:28.203Z,19.03
2023-07-07T06:56:13.553Z,18.90
2023-07-07T06:58:58.866Z,18.12
2023-07-07T07:01:44.963Z,19.16
2023-07-07T07:04:30.766Z,19.23
2023-07-07T07:07:16.219Z,18.66
2023-07-07T07:10:03.694Z,19.21
2023-07-07T07:12:49.894Z,18.77
2023-07-07T07:15:35.662Z,18.97
2023-07-07T07:18:21.064Z,18.38
2023-07-07T07:21:06.529Z,17.78
2023-07-07T07:23:52.575Z,17.88
2023-07-07T07:26:38.102Z,18.45
2023-07-07T07:29:23.484Z,18.66
2023-07-07T07:32:09.077Z,17.59
2023-07-07T07:34:54.767Z,18.57
2023-07-07T07:37:40.493Z,17.67
2023-07-07T07:40:26.309Z,17.72
2023-07-07T07:43:11.999Z,17.66
2023-07-07T07:45:57.417Z,17.74
2023-07-07T07:48:43.465Z,18.71
2023-07-07T07:51:36.950Z,17.78
2023-07-07T07:54:24.688Z,18.42
2023-07-07T07:57:11.463Z,18.54
2023-07-07T07:59:56.852Z,18.67
2023-07-07T08:02:42.386Z,17.83
2023-07-07T08:05:27.811Z,18.33
2023-07-07T08:08:14.207Z,17.71
2023-07-07T08:11:09.985Z,17.82
2023-07-07T08:13:56.486Z,18.03
2023-07-07T08:16:42.037Z,18.05
2023-07-07T08:19:27.548Z,18.88
2023-07-07T08:22:21.568Z,17.96
2023-07-07T08:25:08.737Z,17.98
2023-07-07T08:28:07.658Z,17.94
2023-07-07T08:30:53.917Z,18.23
2023-07-07T08:33:41.309Z,19.03
2023-07-07T08:36:35.998Z,18.03
2023-07-07T08:39:23.687Z,18.81
2023-07-07T08:42:22.915Z,18.06
2023-07-07T08:45:21.587Z,19.10
2023-07-07T08:48:21.866Z,18.08
2023-07-07T08:51:16.112Z,18.77
2023-07-07T08:54:28.134Z,19.23
2023-07-07T08:57:15.868Z,19.24
2023-07-07T09:00:18.313Z,19.27
2023-07-07T09:03:19.148Z,19.29
2023-07-07T09:06:26.714Z,19.27
2023-07-07T09:09:53.876Z,19.27
2023-07-07T09:12:46.807Z,19.27
2023-07-07T09:15:38.088Z,18.30
2023-07-07T09:18:28.853Z,19.23
2023-07-07T09:21:43.596Z,19.42
2023-07-07T09:24:47.073Z,19.47
2023-07-07T09:28:01.054Z,19.58
2023-07-07T09:30:51.904Z,18.98
2023-07-07T09:33:37.180Z,19.12
2023-07-07T09:36:29.220Z,19.88
2023-07-07T09:39:29.115Z,19.93
2023-07-07T09:42:39.357Z,20.00
2023-07-07T09:45:47.537Z,20.07
2023-07-07T09:49:19.971Z,20.11
2023-07-07T09:52:24.377Z,20.16
2023-07-07T09:55:20.962Z,19.22
2023-07-07T09:58:24.103Z,20.27
2023-07-07T10:01:11.478Z,17.33
2023-07-07T10:03:57.728Z,20.29
2023-07-07T10:07:05.517Z,20.12
2023-07-07T10:09:52.197Z,20.34
2023-07-07T10:12:38.517Z,19.35
2023-07-07T10:15:23.897Z,20.37
2023-07-07T10:18:17.862Z,20.39
2023-07-07T10:21:07.624Z,19.96
2023-07-07T10:23:53.668Z,19.42
2023-07-07T10:26:41.087Z,19.36
2023-07-07T10:29:32.773Z,20.45
2023-07-07T10:32:25.482Z,20.48
2023-07-07T10:35:19.241Z,20.03
2023-07-07T10:38:06.023Z,20.38
2023-07-07T10:40:52.027Z,20.29
2023-07-07T10:43:37.895Z,20.18
2023-07-07T10:46:23.798Z,20.35
2023-07-07T10:49:17.563Z,20.44
2023-07-07T10:55:32.920Z,20.17
2023-07-07T10:58:21.626Z,20.41
2023-07-07T11:01:30.682Z,20.45
2023-07-07T11:04:50.331Z,19.95
2023-07-07T11:07:49.844Z,20.53
2023-07-07T11:10:44.729Z,19.56
2023-07-07T11:13:38.966Z,20.60
2023-07-07T11:16:24.589Z,20.62
2023-07-07T11:19:29.684Z,20.63
2023-07-07T11:22:15.153Z,20.65
2023-07-07T11:25:32.244Z,20.69
2023-07-07T11:28:43.056Z,20.25
2023-07-07T11:31:50.994Z,20.74
2023-07-07T11:35:18.839Z,20.77
2023-07-07T11:38:13.374Z,20.81
2023-07-07T11:41:25.089Z,20.84
2023-07-07T11:44:29.525Z,20.88
2023-07-07T11:47:21.356Z,20.92
2023-07-07T11:50:34.053Z,20.72
2023-07-07T11:53:41.388Z,20.97
2023-07-07T11:56:50.976Z,21.01
2023-07-07T12:00:13.219Z,21.03
2023-07-07T12:03:24.285Z,21.05
2023-07-07T12:06:27.381Z,21.10
2023-07-07T12:09:26.032Z,21.15
2023-07-07T12:12:24.311Z,20.20
2023-07-07T12:15:13.633Z,20.57
2023-07-07T12:18:18.158Z,20.25
2023-07-07T12:21:21.927Z,21.29
2023-07-07T12:24:23.072Z,21.34
2023-07-07T12:27:43.749Z,21.18
2023-07-07T12:30:33.563Z,21.44
2023-07-07T12:33:19.436Z,20.27
2023-07-07T12:36:09.154Z,21.32
2023-07-07T12:39:00.902Z,21.46
2023-07-07T12:41:46.261Z,20.48
2023-07-07T12:44:32.834Z,21.48
2023-07-07T12:47:32.329Z,21.47
2023-07-07T12:50:39.285Z,21.54
2023-07-07T12:53:46.733Z,20.87
2023-07-07T12:56:33.661Z,21.15
2023-07-07T12:59:40.242Z,21.44
2023-07-07T13:02:27.336Z,21.51
2023-07-07T13:05:23.588Z,21.58
2023-07-07T13:08:09.249Z,20.44
2023-07-07T13:11:05.004Z,21.62
2023-07-07T13:13:52.080Z,21.65
2023-07-07T13:16:37.866Z,20.92
2023-07-07T13:19:24.296Z,21.71
2023-07-07T13:22:17.758Z,21.71
2023-07-07T13:25:08.128Z,20.83
2023-07-07T13:27:54.752Z,21.61
2023-07-07T13:30:46.311Z,20.85
2023-07-07T13:33:31.775Z,21.65
2023-07-07T13:36:17.616Z,21.82
2023-07-07T13:39:03.199Z,21.81
2023-07-07T13:41:49.473Z,21.56
2023-07-07T13:44:35.342Z,21.00
2023-07-07T13:47:23.564Z,20.94
2023-07-07T13:50:15.461Z,21.66
2023-07-07T13:53:07.533Z,21.41
2023-07-07T13:55:54.614Z,20.54
2023-07-07T13:58:42.885Z,20.91
2023-07-07T14:01:38.058Z,21.62
2023-07-07T14:04:29.590Z,21.80
2023-07-07T14:07:20.634Z,21.48
2023-07-07T14:10:28.582Z,21.85
2023-07-07T14:13:18.236Z,21.84
2023-07-07T14:16:18.605Z,20.93
2023-07-07T14:19:13.265Z,21.94
2023-07-07T14:21:59.252Z,20.94
2023-07-07T14:24:45.202Z,21.10
2023-07-07T14:27:32.108Z,21.74
2023-07-07T14:30:23.331Z,21.30
2023-07-07T14:33:09.932Z,21.78
2023-07-07T14:35:58.881Z,20.92
2023-07-07T14:38:59.610Z,21.85
2023-07-07T14:41:45.499Z,21.06
2023-07-07T14:44:40.660Z,21.88
2023-07-07T14:47:34.755Z,21.01
2023-07-07T14:50:21.182Z,21.06
2023-07-07T14:53:17.382Z,21.52
2023-07-07T14:56:23.220Z,21.56
2023-07-07T14:59:41.134Z,21.09
2023-07-07T15:02:38.437Z,22.09
2023-07-07T15:05:33.203Z,22.15
2023-07-07T15:08:18.994Z,21.94
2023-07-07T15:11:07.118Z,22.15
2023-07-07T15:13:53.757Z,21.63
2023-07-07T15:16:41.040Z,21.99
2023-07-07T15:19:26.666Z,21.67
2023-07-07T15:22:12.359Z,21.85
2023-07-07T15:24:57.969Z,21.68
2023-07-07T15:28:02.554Z,21.72
2023-07-07T15:30:49.709Z,21.74
2023-07-07T15:33:36.489Z,20.74
2023-07-07T15:36:26.164Z,20.64
2023-07-07T15:39:16.647Z,21.49
2023-07-07T15:42:14.240Z,21.24
2023-07-07T15:45:01.890Z,20.57
2023-07-07T15:47:48.722Z,20.58
2023-07-07T15:50:40.555Z,21.15
2023-07-07T15:53:28.706Z,21.55
2023-07-07T15:56:17.627Z,20.55
2023-07-07T15:59:13.893Z,21.35
2023-07-07T16:01:59.723Z,20.50
2023-07-07T16:04:45.749Z,20.64
2023-07-07T16:07:31.498Z,20.65
2023-07-07T16:10:17.145Z,20.45
2023-07-07T16:13:02.828Z,21.14
2023-07-07T16:15:48.646Z,20.43
2023-07-07T16:18:34.361Z,20.54
2023-07-07T16:21:25.454Z,20.34
2023-07-07T16:24:11.639Z,21.28
2023-07-07T16:26:57.315Z,21.21
2023-07-07T16:29:43.280Z,20.53
2023-07-07T16:32:28.442Z,20.33
2023-07-07T16:35:15.063Z,20.35
2023-07-07T16:38:00.508Z,21.29
2023-07-07T16:40:46.607Z,20.81
2023-07-07T16:43:32.391Z,21.32
2023-07-07T16:46:20.490Z,21.35
2023-07-07T16:49:11.082Z,20.97
2023-07-07T16:51:56.764Z,21.31
2023-07-07T16:54:42.110Z,20.56
2023-07-07T16:57:28.699Z,20.58
2023-07-07T17:00:26.202Z,21.26
2023-07-07T17:03:14.551Z,20.60
2023-07-07T17:06:04.509Z,20.31
2023-07-07T17:08:51.193Z,21.08
2023-07-07T17:11:36.832Z,21.17
2023-07-07T17:14:22.274Z,21.26
2023-07-07T17:17:12.212Z,21.30
2023-07-07T17:19:57.505Z,21.23
2023-07-07T17:22:42.744Z,21.30
2023-07-07T17:25:28.111Z,20.27
2023-07-07T17:28:13.805Z,20.20
2023-07-07T17:31:11.072Z,21.25
2023-07-07T17:33:57.324Z,21.25
2023-07-07T17:36:43.567Z,20.83
2023-07-07T17:39:29.267Z,20.61
2023-07-07T17:42:15.000Z,20.49
2023-07-07T17:45:00.595Z,20.58
2023-07-07T17:47:46.248Z,20.91
2023-07-07T17:50:47.804Z,21.35
2023-07-07T17:53:33.557Z,21.33
2023-07-07T17:56:23.425Z,21.26
2023-07-07T17:59:23.132Z,20.63
2023-07-07T18:02:11.308Z,20.32
2023-07-07T18:04:56.709Z,21.27
2023-07-07T18:07:42.416Z,21.28
2023-07-07T18:10:30.843Z,20.58
2023-07-07T18:13:16.116Z,21.12
2023-07-07T18:16:02.842Z,20.28
2023-07-07T18:18:53.895Z,21.31
2023-07-07T18:21:59.411Z,21.28
2023-07-07T18:24:49.248Z,21.26
2023-07-07T18:27:34.691Z,20.24
2023-07-07T18:30:37.843Z,21.23
2023-07-07T18:33:23.404Z,21.17
2023-07-07T18:36:47.172Z,20.15
2023-07-07T18:39:24.791Z,20.04
2023-07-07T18:42:10.937Z,20.89
2023-07-07T18:44:56.254Z,20.56
2023-07-07T18:47:42.647Z,20.73
2023-07-07T18:50:30.333Z,20.66
2023-07-07T18:53:18.155Z,20.49
2023-07-07T18:56:04.104Z,19.42
2023-07-07T18:58:51.614Z,19.69
2023-07-07T19:01:37.788Z,20.00
2023-07-07T19:04:23.609Z,19.20
2023-07-07T19:07:09.153Z,19.14
2023-07-07T19:09:54.855Z,19.97
2023-07-07T19:12:40.257Z,19.39
2023-07-07T19:15:25.637Z,19.84
2023-07-07T19:18:41.173Z,18.73
2023-07-07T19:21:39.705Z,19.77
2023-07-07T19:24:25.804Z,19.51
2023-07-07T19:27:14.253Z,19.69
2023-07-07T19:30:02.004Z,18.56
2023-07-07T19:32:47.342Z,19.50
2023-07-07T19:35:33.768Z,19.51
2023-07-07T19:38:22.869Z,19.49
2023-07-07T19:41:16.889Z,18.88
2023-07-07T19:44:02.498Z,18.24
2023-07-07T19:46:53.351Z,19.25
2023-07-07T19:49:39.075Z,19.14
2023-07-07T19:52:24.610Z,19.13
2023-07-07T19:55:10.223Z,18.00
2023-07-07T19:57:56.615Z,18.84
2023-07-07T20:00:42.383Z,18.76
2023-07-07T20:03:27.991Z,18.74
2023-07-07T20:06:17.084Z,18.88
2023-07-07T20:09:02.521Z,18.76
2023-07-07T20:11:49.358Z,18.21
2023-07-07T20:14:35.327Z,18.56
2023-07-07T20:17:20.981Z,18.44
2023-07-07T20:20:14.312Z,18.47
2023-07-07T20:22:59.865Z,18.43
2023-07-07T20:25:45.639Z,18.35
2023-07-07T20:28:31.044Z,17.89
2023-07-07T20:31:18.451Z,16.85
2023-07-07T20:34:04.714Z,17.81
2023-07-07T20:36:50.483Z,18.19
2023-07-07T20:39:35.647Z,18.08
2023-07-07T20:42:22.056Z,17.45
2023-07-07T20:45:08.359Z,18.23
2023-07-07T20:47:53.954Z,17.23
2023-07-07T20:50:46.004Z,17.90
2023-07-07T20:53:32.193Z,17.57
2023-07-07T20:56:19.630Z,18.01
2023-07-07T20:59:25.961Z,18.42
2023-07-07T21:02:14.259Z,18.26
2023-07-07T21:05:00.183Z,17.94
2023-07-07T21:07:45.634Z,16.94
2023-07-07T21:10:33.967Z,16.84
2023-07-07T21:13:23.235Z,16.78
2023-07-07T21:16:17.201Z,17.68
2023-07-07T21:19:02.529Z,17.57
2023-07-07T21:21:47.947Z,16.33
2023-07-07T21:24:33.195Z,15.90
2023-07-07T21:27:19.505Z,16.75
2023-07-07T21:30:18.480Z,16.17
2023-07-07T21:33:04.331Z,16.95
2023-07-07T21:35:50.082Z,16.93
2023-07-07T21:38:36.089Z,16.94
2023-07-07T21:41:28.689Z,15.52
2023-07-07T21:44:17.609Z,15.98
2023-07-07T21:47:02.957Z,15.79
2023-07-07T21:49:49.915Z,16.47
2023-07-07T21:52:35.323Z,15.89
2023-07-07T21:55:22.677Z,17.00
2023-07-07T21:58:10.190Z,17.27
2023-07-07T22:00:56.839Z,17.32
2023-07-07T22:03:42.515Z,17.31
2023-07-07T22:06:28.127Z,16.29
2023-07-07T22:09:16.214Z,17.06
2023-07-07T22:12:02.094Z,16.66
2023-07-07T22:14:48.722Z,16.74
2023-07-07T22:17:34.286Z,16.52
2023-07-07T22:20:35.905Z,15.47
2023-07-07T22:23:21.509Z,15.30
2023-07-07T22:26:14.694Z,16.26
2023-07-07T22:29:00.258Z,15.92
2023-07-07T22:31:45.672Z,15.05
2023-07-07T22:34:32.058Z,15.85
2023-07-07T22:37:17.904Z,16.07
2023-07-07T22:40:16.700Z,15.13
2023-07-07T22:43:01.972Z,16.06
2023-07-07T22:45:55.816Z,16.02
2023-07-07T22:48:41.346Z,15.93
2023-07-07T22:51:27.102Z,15.77
2023-07-07T22:54:12.327Z,14.73
2023-07-07T22:56:57.798Z,15.83
2023-07-07T22:59:43.062Z,15.14
2023-07-07T23:02:28.472Z,15.72
2023-07-07T23:05:14.750Z,14.45
2023-07-07T23:08:00.313Z,15.71
2023-07-07T23:10:45.610Z,14.55
2023-07-07T23:13:31.435Z,14.79
2023-07-07T23:16:18.075Z,14.67
2023-07-07T23:19:11.726Z,15.23
2023-07-07T23:21:57.236Z,14.54
2023-07-07T23:24:42.952Z,14.60
2023-07-07T23:27:34.346Z,14.40
2023-07-07T23:30:42.137Z,15.52
2023-07-07T23:33:27.752Z,14.31
2023-07-07T23:36:17.616Z,14.93
2023-07-07T23:39:12.141Z,15.31
2023-07-07T23:41:57.996Z,14.68
2023-07-07T23:44:43.616Z,14.29
2023-07-07T23:47:29.201Z,15.47
2023-07-07T23:50:23.248Z,15.48
2023-07-07T23:53:08.823Z,15.46
2023-07-07T23:55:56.034Z,15.42
2023-07-07T23:58:44.252Z,15.36
